| time (UTC) | temp C | wind direction | speed KPH | gust KPH | rain 1hr cm | rain 24hr cm | rain mn cm | humidity % | barometer mb |
| 20260504130108 | 22 | 335 | 14.5 | 0.0 | 0.00 | 0.00 | 0.00 | 54 | 1012.0 |
| 20260504120143 | 22 | 294 | 6.4 | 0.0 | 0.00 | 0.00 | 0.00 | 54 | 1012.1 |
| 20260504110609 | 22 | 335 | 11.3 | 0.0 | 0.00 | 0.00 | 0.00 | 51 | 1011.9 |
| 20260504110133 | 22 | 253 | 3.2 | 0.0 | 0.00 | 0.00 | 0.00 | 53 | 1011.9 |
| 20260504100125 | 21 | 331 | 9.7 | 0.0 | 0.00 | 0.00 | 0.00 | 58 | 1012.5 |
| 20260504090118 | 20 | 251 | 12.9 | 0.0 | 0.00 | 0.00 | 0.00 | 60 | 1012.1 |
| 20260504081623 | 19 | 284 | 8.0 | 0.0 | 0.00 | 0.00 | 0.00 | 62 | 1011.9 |
| 20260504081103 | 19 | 262 | 11.3 | 0.0 | 0.00 | 0.00 | 0.00 | 62 | 1011.9 |
| 20260504080629 | 19 | 263 | 11.3 | 0.0 | 0.00 | 0.00 | 0.00 | 62 | 1011.9 |
| 20260504080109 | 19 | 257 | 11.3 | 0.0 | 0.00 | 0.00 | 0.00 | 62 | 1012.0 |
| 20260504060137 | 18 | 257 | 12.9 | 0.0 | 0.00 | 0.00 | 0.00 | 50 | 1011.1 |
| 20260504050603 | 18 | 287 | 9.7 | 0.0 | 0.00 | 0.00 | 0.00 | 47 | 1011.0 |
| 20260504050129 | 18 | 253 | 11.3 | 0.0 | 0.00 | 0.00 | 0.00 | 47 | 1010.9 |
| 20260504045609 | 18 | 261 | 12.9 | 0.0 | 0.00 | 0.00 | 0.00 | 46 | 1010.7 |
| 20260504045135 | 17 | 261 | 9.7 | 0.0 | 0.00 | 0.00 | 0.00 | 46 | 1010.7 |
| 20260504044615 | 17 | 268 | 9.7 | 0.0 | 0.00 | 0.00 | 0.00 | 47 | 1010.7 |
| 20260504044141 | 16 | 265 | 12.9 | 0.0 | 0.00 | 0.00 | 0.00 | 49 | 1010.8 |
| 20260504043621 | 16 | 266 | 9.7 | 0.0 | 0.00 | 0.00 | 0.00 | 49 | 1010.8 |
| 20260504043102 | 16 | 273 | 9.7 | 0.0 | 0.00 | 0.00 | 0.00 | 50 | 1010.9 |
| 20260504042628 | 16 | 258 | 11.3 | 0.0 | 0.00 | 0.00 | 0.00 | 50 | 1010.9 |
| 20260504042109 | 15 | 249 | 14.5 | 0.0 | 0.00 | 0.00 | 0.00 | 50 | 1010.9 |
| 20260504041634 | 15 | 270 | 14.5 | 0.0 | 0.00 | 0.00 | 0.00 | 51 | 1010.8 |
| 20260504041115 | 15 | 248 | 9.7 | 0.0 | 0.00 | 0.00 | 0.00 | 50 | 1010.8 |
| 20260504040640 | 15 | 242 | 16.1 | 0.0 | 0.00 | 0.00 | 0.00 | 50 | 1010.8 |
| 20260504040120 | 15 | 245 | 8.0 | 0.0 | 0.00 | 0.00 | 0.00 | 50 | 1010.7 |
| 20260504035601 | 15 | 250 | 11.3 | 0.0 | 0.00 | 0.00 | 0.00 | 50 | 1010.7 |
| 20260504035127 | 15 | 274 | 12.9 | 0.0 | 0.00 | 0.00 | 0.00 | 50 | 1010.7 |
| 20260504034607 | 16 | 244 | 11.3 | 0.0 | 0.00 | 0.00 | 0.00 | 49 | 1010.7 |
| 20260504034134 | 15 | 254 | 8.0 | 0.0 | 0.00 | 0.00 | 0.00 | 49 | 1010.8 |
| 20260504033614 | 15 | 244 | 9.7 | 0.0 | 0.00 | 0.00 | 0.00 | 49 | 1010.8 |
| 20260504033140 | 15 | 238 | 9.7 | 0.0 | 0.00 | 0.00 | 0.00 | 49 | 1010.7 |
| 20260504032620 | 15 | 243 | 12.9 | 0.0 | 0.00 | 0.00 | 0.00 | 49 | 1010.7 |
| 20260504032146 | 15 | 228 | 12.9 | 0.0 | 0.00 | 0.00 | 0.00 | 49 | 1010.8 |
| 20260504031627 | 15 | 241 | 11.3 | 0.0 | 0.00 | 0.00 | 0.00 | 49 | 1010.8 |
| 20260504031106 | 15 | 252 | 11.3 | 0.0 | 0.00 | 0.00 | 0.00 | 49 | 1010.8 |
| 20260504030633 | 15 | 249 | 12.9 | 0.0 | 0.00 | 0.00 | 0.00 | 50 | 1010.9 |
| 20260504030113 | 15 | 237 | 8.0 | 0.0 | 0.00 | 0.00 | 0.00 | 49 | 1010.8 |
| 20260504025639 | 16 | 264 | 9.7 | 0.0 | 0.00 | 0.00 | 0.00 | 49 | 1010.7 |
| 20260504025119 | 16 | 247 | 14.5 | 0.0 | 0.00 | 0.00 | 0.00 | 49 | 1010.8 |
| 20260504024645 | 15 | 257 | 11.3 | 0.0 | 0.00 | 0.00 | 0.00 | 49 | 1010.7 |
| 20260504024125 | 15 | 262 | 9.7 | 0.0 | 0.00 | 0.00 | 0.00 | 50 | 1010.8 |
| 20260504023606 | 15 | 237 | 8.0 | 0.0 | 0.00 | 0.00 | 0.00 | 51 | 1010.8 |
| 20260504023132 | 15 | 268 | 11.3 | 0.0 | 0.00 | 0.00 | 0.00 | 51 | 1010.9 |
| 20260504022612 | 15 | 228 | 9.7 | 0.0 | 0.00 | 0.00 | 0.00 | 52 | 1011.0 |
| 20260504022138 | 15 | 257 | 14.5 | 0.0 | 0.00 | 0.00 | 0.00 | 51 | 1010.9 |
| 20260504021618 | 15 | 271 | 14.5 | 0.0 | 0.00 | 0.00 | 0.00 | 50 | 1010.9 |
| 20260504021145 | 16 | 264 | 17.7 | 0.0 | 0.00 | 0.00 | 0.00 | 44 | 1010.7 |
| 20260504020625 | 16 | 220 | 8.0 | 0.0 | 0.00 | 0.00 | 0.00 | 44 | 1010.7 |
| 20260504020105 | 16 | 223 | 8.0 | 0.0 | 0.00 | 0.00 | 0.00 | 44 | 1010.6 |
| 20260504015631 | 16 | 202 | 8.0 | 0.0 | 0.00 | 0.00 | 0.00 | 45 | 1010.6 |
| 20260504015111 | 16 | 194 | 9.7 | 0.0 | 0.00 | 0.00 | 0.00 | 45 | 1010.6 |
| 20260504014638 | 16 | 206 | 11.3 | 0.0 | 0.00 | 0.00 | 0.00 | 45 | 1010.6 |
| 20260504014117 | 16 | 201 | 6.4 | 0.0 | 0.00 | 0.00 | 0.00 | 45 | 1010.6 |
| 20260504013644 | 16 | 197 | 6.4 | 0.0 | 0.00 | 0.00 | 0.00 | 45 | 1010.7 |
| 20260504013124 | 16 | 186 | 8.0 | 0.0 | 0.00 | 0.00 | 0.00 | 45 | 1010.8 |
| 20260504012605 | 16 | 211 | 6.4 | 0.0 | 0.00 | 0.00 | 0.00 | 45 | 1010.9 |
| 20260504012130 | 16 | 193 | 6.4 | 0.0 | 0.00 | 0.00 | 0.00 | 45 | 1010.9 |
| 20260504011611 | 16 | 202 | 6.4 | 0.0 | 0.00 | 0.00 | 0.00 | 46 | 1010.9 |
| 20260504011136 | 16 | 195 | 4.8 | 0.0 | 0.00 | 0.00 | 0.00 | 47 | 1011.1 |
| 20260504010616 | 16 | 204 | 4.8 | 0.0 | 0.00 | 0.00 | 0.00 | 47 | 1011.1 |
| 20260504010144 | 16 | 210 | 4.8 | 0.0 | 0.00 | 0.00 | 0.00 | 47 | 1011.2 |
| 20260504005623 | 16 | 208 | 3.2 | 0.0 | 0.00 | 0.00 | 0.00 | 48 | 1011.3 |
| 20260504005104 | 16 | 202 | 3.2 | 0.0 | 0.00 | 0.00 | 0.00 | 48 | 1011.3 |
| 20260504004630 | 16 | 200 | 4.8 | 0.0 | 0.00 | 0.00 | 0.00 | 49 | 1011.4 |
| 20260504004109 | 16 | 191 | 4.8 | 0.0 | 0.00 | 0.00 | 0.00 | 50 | 1011.4 |
| 20260504003636 | 16 | 184 | 4.8 | 0.0 | 0.00 | 0.00 | 0.00 | 50 | 1011.4 |
| 20260504003117 | 16 | 178 | 6.4 | 0.0 | 0.00 | 0.00 | 0.00 | 51 | 1011.5 |
| 20260504002642 | 16 | 175 | 6.4 | 0.0 | 0.00 | 0.00 | 0.00 | 52 | 1011.6 |
| 20260504002123 | 16 | 174 | 6.4 | 0.0 | 0.00 | 0.00 | 0.00 | 54 | 1011.6 |
| 20260504001603 | 15 | 176 | 6.4 | 0.0 | 0.00 | 0.00 | 0.00 | 56 | 1011.6 |
| 20260504001129 | 15 | 171 | 4.8 | 0.0 | 0.00 | 0.00 | 0.00 | 58 | 1011.7 |
| 20260504000610 | 15 | 182 | 3.2 | 0.0 | 0.00 | 0.00 | 0.00 | 58 | 1011.7 |
| 20260504000135 | 15 | 183 | 4.8 | 0.0 | 0.00 | 0.00 | 0.00 | 58 | 1011.7 |
| 20260503235615 | 15 | 207 | 1.6 | 0.0 | 0.00 | 0.00 | 0.00 | 59 | 1011.8 |
| 20260503235142 | 15 | 232 | 3.2 | 0.0 | 0.00 | 0.00 | 0.00 | 60 | 1011.8 |
| 20260503234623 | 15 | 217 | 1.6 | 0.0 | 0.00 | 0.00 | 0.00 | 60 | 1011.9 |
| 20260503234103 | 15 | 154 | 1.6 | 0.0 | 0.00 | 0.00 | 0.00 | 59 | 1011.9 |
| 20260503233629 | 15 | 251 | 1.6 | 0.0 | 0.00 | 0.00 | 0.00 | 60 | 1012.0 |
| 20260503232634 | 16 | 262 | 3.2 | 0.0 | 0.00 | 0.00 | 0.00 | 57 | 1012.2 |
| 20260503232115 | 16 | 254 | 3.2 | 0.0 | 0.00 | 0.00 | 0.00 | 58 | 1012.2 |
| 20260503231640 | 16 | 285 | 3.2 | 0.0 | 0.00 | 0.00 | 0.00 | 55 | 1012.3 |
| 20260503231122 | 16 | 228 | 3.2 | 0.0 | 0.00 | 0.00 | 0.00 | 54 | 1012.3 |
| 20260503230602 | 16 | 276 | 1.6 | 0.0 | 0.00 | 0.00 | 0.00 | 55 | 1012.3 |
| 20260503230127 | 16 | 257 | 3.2 | 0.0 | 0.00 | 0.00 | 0.00 | 53 | 1012.5 |
| 20260503225608 | 16 | 187 | 3.2 | 0.0 | 0.00 | 0.00 | 0.00 | 53 | 1012.5 |
| 20260503225133 | 16 | 228 | 3.2 | 0.0 | 0.00 | 0.00 | 0.00 | 54 | 1012.5 |
| 20260503224614 | 16 | 261 | 3.2 | 0.0 | 0.00 | 0.00 | 0.00 | 55 | 1012.5 |
| 20260503224140 | 16 | 247 | 1.6 | 0.0 | 0.00 | 0.00 | 0.00 | 54 | 1012.6 |
| 20260503223620 | 16 | 236 | 4.8 | 0.0 | 0.00 | 0.00 | 0.00 | 56 | 1012.6 |
| 20260503223101 | 16 | 179 | 1.6 | 0.0 | 0.00 | 0.00 | 0.00 | 57 | 1012.6 |
| 20260503222626 | 16 | 178 | 3.2 | 0.0 | 0.00 | 0.00 | 0.00 | 55 | 1012.6 |
| 20260503222107 | 16 | 244 | 3.2 | 0.0 | 0.00 | 0.00 | 0.00 | 56 | 1012.8 |
| 20260503221633 | 16 | 313 | 4.8 | 0.0 | 0.00 | 0.00 | 0.00 | 57 | 1012.8 |
| 20260503221113 | 16 | 263 | 1.6 | 0.0 | 0.00 | 0.00 | 0.00 | 56 | 1012.9 |
| 20260503220640 | 16 | 150 | 1.6 | 0.0 | 0.00 | 0.00 | 0.00 | 56 | 1012.8 |
| 20260503220120 | 16 | 167 | 1.6 | 0.0 | 0.00 | 0.00 | 0.00 | 57 | 1013.0 |
| 20260503215646 | 16 | 127 | 3.2 | 0.0 | 0.00 | 0.00 | 0.00 | 57 | 1013.0 |
| 20260503215126 | 16 | 3 | 6.4 | 0.0 | 0.00 | 0.00 | 0.00 | 57 | 1013.1 |
| 20260503214606 | 16 | 344 | 3.2 | 0.0 | 0.00 | 0.00 | 0.00 | 57 | 1013.1 |
| 20260503214132 | 16 | 168 | 4.8 | 0.0 | 0.00 | 0.00 | 0.00 | 55 | 1013.0 |
| 20260503213613 | 17 | 199 | 4.8 | 0.0 | 0.00 | 0.00 | 0.00 | 54 | 1013.0 |
| 20260503213139 | 17 | 294 | 6.4 | 0.0 | 0.00 | 0.00 | 0.00 | 53 | 1013.1 |
| 20260503212620 | 16 | 321 | 6.4 | 0.0 | 0.00 | 0.00 | 0.00 | 54 | 1013.2 |
| 20260503212145 | 16 | 302 | 3.2 | 0.0 | 0.00 | 0.00 | 0.00 | 53 | 1013.2 |
| 20260503211627 | 17 | 170 | 4.8 | 0.0 | 0.00 | 0.00 | 0.00 | 52 | 1013.2 |
| 20260503211106 | 17 | 190 | 3.2 | 0.0 | 0.00 | 0.00 | 0.00 | 51 | 1013.3 |
| 20260503210631 | 17 | 247 | 3.2 | 0.0 | 0.00 | 0.00 | 0.00 | 51 | 1013.4 |
| 20260503210112 | 17 | 195 | 1.6 | 0.0 | 0.00 | 0.00 | 0.00 | 51 | 1013.4 |
| 20260503205638 | 17 | 291 | 4.8 | 0.0 | 0.00 | 0.00 | 0.00 | 51 | 1013.4 |
| 20260503205118 | 16 | 314 | 14.5 | 0.0 | 0.00 | 0.00 | 0.00 | 54 | 1013.7 |
| 20260503204644 | 17 | 319 | 8.0 | 0.0 | 0.00 | 0.00 | 0.00 | 52 | 1013.3 |
| 20260503204125 | 17 | 309 | 4.8 | 0.0 | 0.00 | 0.00 | 0.00 | 52 | 1013.3 |
| 20260503203605 | 17 | 235 | 1.6 | 0.0 | 0.00 | 0.00 | 0.00 | 51 | 1013.2 |
| 20260503203131 | 17 | 240 | 1.6 | 0.0 | 0.00 | 0.00 | 0.00 | 50 | 1013.3 |
| 20260503202611 | 17 | 268 | 1.6 | 0.0 | 0.00 | 0.00 | 0.00 | 50 | 1013.3 |
| 20260503202138 | 17 | 247 | 1.6 | 0.0 | 0.00 | 0.00 | 0.00 | 50 | 1013.2 |
| 20260503201618 | 17 | 221 | 1.6 | 0.0 | 0.00 | 0.00 | 0.00 | 50 | 1013.1 |
| 20260503201143 | 17 | 287 | 3.2 | 0.0 | 0.00 | 0.00 | 0.00 | 50 | 1013.2 |
| 20260503200624 | 17 | 271 | 3.2 | 0.0 | 0.00 | 0.00 | 0.00 | 49 | 1013.2 |
| 20260503200106 | 17 | 268 | 1.6 | 0.0 | 0.00 | 0.00 | 0.00 | 50 | 1013.2 |
| 20260503195631 | 17 | 255 | 3.2 | 0.0 | 0.00 | 0.00 | 0.00 | 49 | 1013.2 |
| 20260503195110 | 17 | 262 | 3.2 | 0.0 | 0.00 | 0.00 | 0.00 | 50 | 1013.2 |
| 20260503194637 | 17 | 204 | 1.6 | 0.0 | 0.00 | 0.00 | 0.00 | 48 | 1013.2 |
| 20260503194117 | 17 | 300 | 1.6 | 0.0 | 0.00 | 0.00 | 0.00 | 49 | 1013.2 |
| 20260503193643 | 17 | 311 | 3.2 | 0.0 | 0.00 | 0.00 | 0.00 | 48 | 1013.2 |
| 20260503193123 | 18 | 312 | 3.2 | 0.0 | 0.00 | 0.00 | 0.00 | 47 | 1013.2 |
| 20260503192603 | 18 | 304 | 3.2 | 0.0 | 0.00 | 0.00 | 0.00 | 47 | 1013.2 |
| 20260503192128 | 18 | 316 | 4.8 | 0.0 | 0.00 | 0.00 | 0.00 | 46 | 1013.2 |
| 20260503191609 | 18 | 310 | 3.2 | 0.0 | 0.00 | 0.00 | 0.00 | 45 | 1013.2 |
| 20260503191135 | 18 | 305 | 1.6 | 0.0 | 0.00 | 0.00 | 0.00 | 45 | 1013.2 |
| 20260503190615 | 18 | 306 | 3.2 | 0.0 | 0.00 | 0.00 | 0.00 | 44 | 1013.2 |
| 20260503190142 | 18 | 274 | 3.2 | 0.0 | 0.00 | 0.00 | 0.00 | 44 | 1013.1 |
| 20260503185622 | 19 | 290 | 3.2 | 0.0 | 0.00 | 0.00 | 0.00 | 43 | 1013.2 |
| 20260503185102 | 19 | 278 | 3.2 | 0.0 | 0.00 | 0.00 | 0.00 | 42 | 1013.1 |
| 20260503184628 | 19 | 281 | 1.6 | 0.0 | 0.00 | 0.00 | 0.00 | 41 | 1013.1 |
| 20260503184109 | 20 | 292 | 1.6 | 0.0 | 0.00 | 0.00 | 0.00 | 41 | 1013.0 |
| 20260503183637 | 20 | 230 | 1.6 | 0.0 | 0.00 | 0.00 | 0.00 | 39 | 1012.9 |
| 20260503183116 | 20 | 279 | 1.6 | 0.0 | 0.00 | 0.00 | 0.00 | 39 | 1012.9 |
| 20260503182641 | 20 | 243 | 1.6 | 0.0 | 0.00 | 0.00 | 0.00 | 38 | 1012.9 |
| 20260503182122 | 20 | 208 | 1.6 | 0.0 | 0.00 | 0.00 | 0.00 | 37 | 1012.9 |
| 20260503181602 | 21 | 177 | 1.6 | 0.0 | 0.00 | 0.00 | 0.00 | 36 | 1012.9 |
| 20260503181128 | 21 | 167 | 1.6 | 0.0 | 0.00 | 0.00 | 0.00 | 35 | 1012.8 |
| 20260503180608 | 21 | 132 | 1.6 | 0.0 | 0.00 | 0.00 | 0.00 | 34 | 1012.7 |
| 20260503180134 | 22 | 7 | 3.2 | 0.0 | 0.00 | 0.00 | 0.00 | 34 | 1012.7 |
| 20260503175615 | 22 | 30 | 3.2 | 0.0 | 0.00 | 0.00 | 0.00 | 32 | 1012.7 |
| 20260503175140 | 22 | 120 | 1.6 | 0.0 | 0.00 | 0.00 | 0.00 | 32 | 1012.6 |
| 20260503174621 | 23 | 106 | 1.6 | 0.0 | 0.00 | 0.00 | 0.00 | 31 | 1012.6 |
| 20260503174101 | 23 | 7 | 1.6 | 0.0 | 0.00 | 0.00 | 0.00 | 31 | 1012.6 |
| 20260503173627 | 23 | 316 | 1.6 | 0.0 | 0.00 | 0.00 | 0.00 | 32 | 1012.6 |
| 20260503173107 | 23 | 346 | 3.2 | 0.0 | 0.00 | 0.00 | 0.00 | 31 | 1012.6 |
| 20260503172632 | 23 | 1 | 6.4 | 0.0 | 0.00 | 0.00 | 0.00 | 31 | 1012.5 |
| 20260503172113 | 23 | 6 | 1.6 | 0.0 | 0.00 | 0.00 | 0.00 | 31 | 1012.5 |
| 20260503171639 | 24 | 21 | 6.4 | 0.0 | 0.00 | 0.00 | 0.00 | 29 | 1012.5 |
| 20260503171119 | 24 | 36 | 4.8 | 0.0 | 0.00 | 0.00 | 0.00 | 29 | 1012.6 |
| 20260503170644 | 25 | 56 | 3.2 | 0.0 | 0.00 | 0.00 | 0.00 | 28 | 1012.5 |
| 20260503170125 | 25 | 71 | 1.6 | 0.0 | 0.00 | 0.00 | 0.00 | 29 | 1012.6 |
| 20260503160116 | 25 | 34 | 4.8 | 0.0 | 0.00 | 0.00 | 0.00 | 27 | 1012.7 |
| 20260503150623 | 24 | 67 | 8.0 | 0.0 | 0.00 | 0.00 | 0.00 | 27 | 1012.5 |
| 20260503150104 | 25 | 0 | 8.0 | 0.0 | 0.00 | 0.00 | 0.00 | 26 | 1012.7 |
| 20260503140141 | 30 | 262 | 8.0 | 0.0 | 0.00 | 0.00 | 0.00 | 15 | 1012.9 |
| 20260503131127 | 28 | 202 | 11.3 | 0.0 | 0.00 | 0.00 | 0.00 | 16 | 1013.3 |
| 20260503130607 | 28 | 217 | 4.8 | 0.0 | 0.00 | 0.00 | 0.00 | 17 | 1013.3 |